sensor_id;sensor_type;location;lat;lon;timestamp;pressure;altitude;pressure_sealevel;temperature;humidity
3206;BME280;1615;53.602;11.418;2022-09-17T00:01:22;99871.69;;;14.81;100.00
3206;BME280;1615;53.602;11.418;2022-09-17T00:03:50;99876.75;;;14.79;100.00
3206;BME280;1615;53.602;11.418;2022-09-17T00:06:17;99892.16;;;14.68;100.00
3206;BME280;1615;53.602;11.418;2022-09-17T00:08:42;99888.91;;;14.66;100.00
3206;BME280;1615;53.602;11.418;2022-09-17T00:11:17;99887.41;;;14.68;100.00
3206;BME280;1615;53.602;11.418;2022-09-17T00:13:45;99891.00;;;14.69;100.00
3206;BME280;1615;53.602;11.418;2022-09-17T00:16:11;99871.66;;;14.57;100.00
3206;BME280;1615;53.602;11.418;2022-09-17T00:18:37;99886.75;;;14.71;100.00
3206;BME280;1615;53.602;11.418;2022-09-17T00:21:06;99773.81;;;13.98;100.00
3206;BME280;1615;53.602;11.418;2022-09-17T00:23:31;99852.34;;;14.57;100.00
3206;BME280;1615;53.602;11.418;2022-09-17T00:25:57;99886.88;;;14.75;100.00
3206;BME280;1615;53.602;11.418;2022-09-17T00:28:23;99891.84;;;14.81;100.00
3206;BME280;1615;53.602;11.418;2022-09-17T00:30:48;99888.50;;;14.88;100.00
3206;BME280;1615;53.602;11.418;2022-09-17T00:33:15;99886.53;;;14.88;100.00
3206;BME280;1615;53.602;11.418;2022-09-17T00:35:42;99884.22;;;14.90;100.00
3206;BME280;1615;53.602;11.418;2022-09-17T00:38:08;99884.59;;;14.89;100.00
3206;BME280;1615;53.602;11.418;2022-09-17T00:40:33;99789.28;;;14.23;100.00
3206;BME280;1615;53.602;11.418;2022-09-17T00:42:59;99893.66;;;14.89;100.00
3206;BME280;1615;53.602;11.418;2022-09-17T00:45:25;99892.41;;;14.87;100.00
3206;BME280;1615;53.602;11.418;2022-09-17T00:47:58;99895.16;;;14.87;100.00
3206;BME280;1615;53.602;11.418;2022-09-17T00:50:32;99904.59;;;14.86;100.00
3206;BME280;1615;53.602;11.418;2022-09-17T00:53:19;99906.19;;;14.87;100.00
3206;BME280;1615;53.602;11.418;2022-09-17T00:55:51;99906.63;;;14.77;100.00
3206;BME280;1615;53.602;11.418;2022-09-17T00:58:20;99906.09;;;14.83;100.00
3206;BME280;1615;53.602;11.418;2022-09-17T01:00:47;99903.31;;;14.83;100.00
3206;BME280;1615;53.602;11.418;2022-09-17T01:03:12;99906.19;;;14.87;100.00
3206;BME280;1615;53.602;11.418;2022-09-17T01:08:52;99906.47;;;14.94;100.00
3206;BME280;1615;53.602;11.418;2022-09-17T01:11:45;99913.81;;;15.02;100.00
3206;BME280;1615;53.602;11.418;2022-09-17T01:17:28;99904.38;;;15.03;100.00
3206;BME280;1615;53.602;11.418;2022-09-17T01:22:51;99902.88;;;14.93;100.00
3206;BME280;1615;53.602;11.418;2022-09-17T01:25:22;99909.44;;;15.01;100.00
3206;BME280;1615;53.602;11.418;2022-09-17T01:31:15;99906.09;;;14.95;100.00
3206;BME280;1615;53.602;11.418;2022-09-17T01:36:27;99897.03;;;14.95;100.00
3206;BME280;1615;53.602;11.418;2022-09-17T01:44:14;99910.34;;;14.93;100.00
3206;BME280;1615;53.602;11.418;2022-09-17T01:46:54;99870.75;;;14.65;100.00
3206;BME280;1615;53.602;11.418;2022-09-17T01:49:22;99900.44;;;14.80;100.00
3206;BME280;1615;53.602;11.418;2022-09-17T01:51:50;99920.22;;;14.82;100.00
3206;BME280;1615;53.602;11.418;2022-09-17T01:54:29;99920.09;;;14.78;100.00
3206;BME280;1615;53.602;11.418;2022-09-17T01:57:00;99828.25;;;14.21;100.00
3206;BME280;1615;53.602;11.418;2022-09-17T01:59:42;99921.47;;;14.84;100.00
3206;BME280;1615;53.602;11.418;2022-09-17T02:02:12;99919.31;;;14.78;100.00
3206;BME280;1615;53.602;11.418;2022-09-17T02:04:55;99911.72;;;14.87;100.00
3206;BME280;1615;53.602;11.418;2022-09-17T02:07:23;99911.72;;;14.87;100.00
3206;BME280;1615;53.602;11.418;2022-09-17T02:10:27;99909.06;;;14.78;100.00
3206;BME280;1615;53.602;11.418;2022-09-17T02:13:01;99873.25;;;14.46;100.00
3206;BME280;1615;53.602;11.418;2022-09-17T02:15:37;99918.16;;;14.79;100.00
3206;BME280;1615;53.602;11.418;2022-09-17T02:18:10;99867.97;;;14.53;100.00
3206;BME280;1615;53.602;11.418;2022-09-17T02:20:42;99897.78;;;14.71;100.00
3206;BME280;1615;53.602;11.418;2022-09-17T02:23:31;99902.28;;;14.76;100.00
3206;BME280;1615;53.602;11.418;2022-09-17T02:26:03;99912.41;;;14.84;100.00
3206;BME280;1615;53.602;11.418;2022-09-17T02:28:52;99903.81;;;14.85;100.00
3206;BME280;1615;53.602;11.418;2022-09-17T02:31:19;99907.56;;;14.81;100.00
3206;BME280;1615;53.602;11.418;2022-09-17T02:33:48;99902.16;;;14.84;100.00
3206;BME280;1615;53.602;11.418;2022-09-17T02:36:15;99903.22;;;14.80;100.00
3206;BME280;1615;53.602;11.418;2022-09-17T02:38:42;99911.47;;;14.80;100.00
3206;BME280;1615;53.602;11.418;2022-09-17T02:41:21;99870.06;;;14.56;100.00
3206;BME280;1615;53.602;11.418;2022-09-17T02:44:01;99896.19;;;14.70;100.00
3206;BME280;1615;53.602;11.418;2022-09-17T02:52:45;99909.19;;;14.82;100.00
3206;BME280;1615;53.602;11.418;2022-09-17T02:57:30;99910.31;;;14.81;100.00
3206;BME280;1615;53.602;11.418;2022-09-17T03:02:32;99899.56;;;14.88;100.00
3206;BME280;1615;53.602;11.418;2022-09-17T03:05:00;99888.47;;;14.76;100.00
3206;BME280;1615;53.602;11.418;2022-09-17T03:07:26;99901.84;;;14.86;100.00
3206;BME280;1615;53.602;11.418;2022-09-17T03:09:53;99895.16;;;14.87;100.00
3206;BME280;1615;53.602;11.418;2022-09-17T03:12:18;99900.69;;;14.87;100.00
3206;BME280;1615;53.602;11.418;2022-09-17T03:14:44;99891.38;;;14.91;100.00
3206;BME280;1615;53.602;11.418;2022-09-17T03:17:09;99791.06;;;14.27;100.00
3206;BME280;1615;53.602;11.418;2022-09-17T03:19:35;99901.16;;;14.89;100.00
3206;BME280;1615;53.602;11.418;2022-09-17T03:22:00;99900.94;;;14.94;100.00
3206;BME280;1615;53.602;11.418;2022-09-17T03:24:25;99836.47;;;14.54;100.00
3206;BME280;1615;53.602;11.418;2022-09-17T03:26:51;99897.69;;;14.92;100.00
3206;BME280;1615;53.602;11.418;2022-09-17T03:29:16;99905.41;;;14.86;100.00
3206;BME280;1615;53.602;11.418;2022-09-17T03:31:42;99909.44;;;14.89;100.00
3206;BME280;1615;53.602;11.418;2022-09-17T03:34:07;99908.94;;;14.75;100.00
3206;BME280;1615;53.602;11.418;2022-09-17T03:36:33;99903.91;;;14.89;100.00
3206;BME280;1615;53.602;11.418;2022-09-17T03:39:00;99904.38;;;14.91;100.00
3206;BME280;1615;53.602;11.418;2022-09-17T03:41:25;99899.91;;;14.86;100.00
3206;BME280;1615;53.602;11.418;2022-09-17T03:43:51;99907.84;;;14.88;100.00
3206;BME280;1615;53.602;11.418;2022-09-17T03:46:17;99906.69;;;14.89;100.00
3206;BME280;1615;53.602;11.418;2022-09-17T03:48:42;99880.41;;;14.71;100.00
3206;BME280;1615;53.602;11.418;2022-09-17T03:51:07;99911.59;;;14.83;100.00
3206;BME280;1615;53.602;11.418;2022-09-17T03:53:33;99907.69;;;14.84;100.00
3206;BME280;1615;53.602;11.418;2022-09-17T03:55:59;99913.34;;;14.88;100.00
3206;BME280;1615;53.602;11.418;2022-09-17T03:58:25;99908.06;;;14.83;100.00
3206;BME280;1615;53.602;11.418;2022-09-17T04:00:51;99909.66;;;14.84;100.00
3206;BME280;1615;53.602;11.418;2022-09-17T04:03:17;99903.22;;;14.80;100.00
3206;BME280;1615;53.602;11.418;2022-09-17T04:05:43;99913.41;;;14.79;100.00
3206;BME280;1615;53.602;11.418;2022-09-17T04:08:08;99912.31;;;14.80;100.00
3206;BME280;1615;53.602;11.418;2022-09-17T04:10:33;99899.28;;;14.69;100.00
3206;BME280;1615;53.602;11.418;2022-09-17T04:12:58;99923.38;;;14.60;100.00
3206;BME280;1615;53.602;11.418;2022-09-17T04:15:24;99926.44;;;14.91;100.00
3206;BME280;1615;53.602;11.418;2022-09-17T04:17:49;99926.34;;;14.99;100.00
3206;BME280;1615;53.602;11.418;2022-09-17T04:20:14;99930.72;;;15.00;100.00
3206;BME280;1615;53.602;11.418;2022-09-17T04:22:40;99928.09;;;15.04;100.00
3206;BME280;1615;53.602;11.418;2022-09-17T04:25:06;99926.22;;;14.96;100.00
3206;BME280;1615;53.602;11.418;2022-09-17T04:27:31;99924.63;;;14.95;100.00
3206;BME280;1615;53.602;11.418;2022-09-17T04:29:57;99933.78;;;14.87;100.00
3206;BME280;1615;53.602;11.418;2022-09-17T04:32:22;99921.38;;;14.81;100.00
3206;BME280;1615;53.602;11.418;2022-09-17T04:34:47;99897.56;;;14.64;100.00
3206;BME280;1615;53.602;11.418;2022-09-17T04:37:12;99894.88;;;14.56;100.00
3206;BME280;1615;53.602;11.418;2022-09-17T04:39:38;99927.81;;;14.73;100.00
3206;BME280;1615;53.602;11.418;2022-09-17T04:42:03;99908.78;;;14.59;100.00
3206;BME280;1615;53.602;11.418;2022-09-17T04:44:28;99934.69;;;14.67;100.00
3206;BME280;1615;53.602;11.418;2022-09-17T04:46:54;99927.69;;;14.69;100.00
3206;BME280;1615;53.602;11.418;2022-09-17T04:49:20;99932.13;;;14.62;100.00
3206;BME280;1615;53.602;11.418;2022-09-17T04:51:45;99933.03;;;14.66;100.00
3206;BME280;1615;53.602;11.418;2022-09-17T04:54:11;99935.13;;;14.69;100.00
3206;BME280;1615;53.602;11.418;2022-09-17T04:56:36;99943.28;;;14.65;100.00
3206;BME280;1615;53.602;11.418;2022-09-17T04:59:01;99929.72;;;14.60;100.00
3206;BME280;1615;53.602;11.418;2022-09-17T05:01:27;99934.41;;;14.60;100.00
3206;BME280;1615;53.602;11.418;2022-09-17T05:03:52;99933.13;;;14.57;100.00
3206;BME280;1615;53.602;11.418;2022-09-17T05:06:17;99932.56;;;14.52;100.00
3206;BME280;1615;53.602;11.418;2022-09-17T05:08:42;99938.63;;;14.45;100.00
3206;BME280;1615;53.602;11.418;2022-09-17T05:11:08;99936.19;;;14.44;100.00
3206;BME280;1615;53.602;11.418;2022-09-17T05:13:33;99935.81;;;14.33;100.00
3206;BME280;1615;53.602;11.418;2022-09-17T05:15:58;99940.38;;;14.29;100.00
3206;BME280;1615;53.602;11.418;2022-09-17T05:18:24;99909.44;;;14.03;100.00
3206;BME280;1615;53.602;11.418;2022-09-17T05:20:50;99948.91;;;14.16;100.00
3206;BME280;1615;53.602;11.418;2022-09-17T05:23:16;99950.72;;;14.12;100.00
3206;BME280;1615;53.602;11.418;2022-09-17T05:25:42;99961.47;;;13.84;100.00
3206;BME280;1615;53.602;11.418;2022-09-17T05:28:07;100036.22;;;14.03;100.00
3206;BME280;1615;53.602;11.418;2022-09-17T05:30:32;99954.50;;;14.07;100.00
3206;BME280;1615;53.602;11.418;2022-09-17T05:33:02;99970.50;;;14.14;100.00
3206;BME280;1615;53.602;11.418;2022-09-17T05:35:29;99968.28;;;14.28;100.00
3206;BME280;1615;53.602;11.418;2022-09-17T05:38:00;99970.13;;;14.24;100.00
3206;BME280;1615;53.602;11.418;2022-09-17T05:40:26;99976.56;;;14.28;100.00
3206;BME280;1615;53.602;11.418;2022-09-17T05:42:57;99985.97;;;14.27;100.00
3206;BME280;1615;53.602;11.418;2022-09-17T05:45:22;99989.94;;;14.38;100.00
3206;BME280;1615;53.602;11.418;2022-09-17T05:47:53;99992.16;;;14.44;100.00
3206;BME280;1615;53.602;11.418;2022-09-17T05:50:18;99975.75;;;14.48;100.00
3206;BME280;1615;53.602;11.418;2022-09-17T05:52:44;99998.06;;;14.55;100.00
3206;BME280;1615;53.602;11.418;2022-09-17T05:55:09;99986.38;;;14.58;100.00
3206;BME280;1615;53.602;11.418;2022-09-17T05:57:34;99986.69;;;14.56;100.00
3206;BME280;1615;53.602;11.418;2022-09-17T06:00:00;99958.94;;;14.41;100.00
3206;BME280;1615;53.602;11.418;2022-09-17T06:02:25;99979.91;;;14.54;100.00
3206;BME280;1615;53.602;11.418;2022-09-17T06:04:50;99975.09;;;14.51;100.00
3206;BME280;1615;53.602;11.418;2022-09-17T06:07:15;99975.28;;;14.46;100.00
3206;BME280;1615;53.602;11.418;2022-09-17T06:09:41;99981.94;;;14.45;100.00
3206;BME280;1615;53.602;11.418;2022-09-17T06:12:06;99976.16;;;14.38;100.00
3206;BME280;1615;53.602;11.418;2022-09-17T06:14:32;99964.69;;;14.07;100.00
3206;BME280;1615;53.602;11.418;2022-09-17T06:16:57;99986.53;;;14.12;100.00
3206;BME280;1615;53.602;11.418;2022-09-17T06:19:22;99991.22;;;14.20;100.00
3206;BME280;1615;53.602;11.418;2022-09-17T06:21:48;99992.84;;;14.21;100.00
3206;BME280;1615;53.602;11.418;2022-09-17T06:24:14;99994.44;;;14.22;100.00
3206;BME280;1615;53.602;11.418;2022-09-17T06:26:40;99998.91;;;14.35;100.00
3206;BME280;1615;53.602;11.418;2022-09-17T06:29:05;99998.47;;;14.45;100.00
3206;BME280;1615;53.602;11.418;2022-09-17T06:31:30;99992.94;;;14.45;100.00
3206;BME280;1615;53.602;11.418;2022-09-17T06:33:56;99997.16;;;14.51;100.00
3206;BME280;1615;53.602;11.418;2022-09-17T06:36:21;100010.56;;;14.52;100.00
3206;BME280;1615;53.602;11.418;2022-09-17T06:38:47;99972.53;;;14.46;100.00
3206;BME280;1615;53.602;11.418;2022-09-17T06:41:12;99964.25;;;14.46;100.00
3206;BME280;1615;53.602;11.418;2022-09-17T06:43:39;99985.13;;;14.67;100.00
3206;BME280;1615;53.602;11.418;2022-09-17T06:46:05;100012.94;;;14.95;100.00
3206;BME280;1615;53.602;11.418;2022-09-17T06:48:34;100018.16;;;15.08;100.00
3206;BME280;1615;53.602;11.418;2022-09-17T06:51:05;100015.75;;;15.07;100.00
3206;BME280;1615;53.602;11.418;2022-09-17T06:53:31;99912.69;;;14.58;100.00
3206;BME280;1615;53.602;11.418;2022-09-17T06:55:57;100017.97;;;15.25;100.00
3206;BME280;1615;53.602;11.418;2022-09-17T06:58:24;100002.81;;;15.43;100.00
3206;BME280;1615;53.602;11.418;2022-09-17T07:00:50;100003.63;;;15.44;100.00
3206;BME280;1615;53.602;11.418;2022-09-17T07:03:15;100002.97;;;15.47;100.00
3206;BME280;1615;53.602;11.418;2022-09-17T07:05:42;100007.13;;;15.53;100.00
3206;BME280;1615;53.602;11.418;2022-09-17T07:08:09;100007.34;;;15.60;100.00
3206;BME280;1615;53.602;11.418;2022-09-17T07:10:35;99995.72;;;15.66;100.00
3206;BME280;1615;53.602;11.418;2022-09-17T07:13:01;100005.28;;;15.69;100.00
3206;BME280;1615;53.602;11.418;2022-09-17T07:15:26;100006.19;;;15.85;100.00
3206;BME280;1615;53.602;11.418;2022-09-17T07:17:51;100006.88;;;15.82;100.00
3206;BME280;1615;53.602;11.418;2022-09-17T07:20:17;99992.38;;;15.85;100.00
3206;BME280;1615;53.602;11.418;2022-09-17T07:22:43;100007.09;;;15.77;100.00
3206;BME280;1615;53.602;11.418;2022-09-17T07:25:09;100012.16;;;15.87;100.00
3206;BME280;1615;53.602;11.418;2022-09-17T07:27:34;100012.97;;;15.99;100.00
3206;BME280;1615;53.602;11.418;2022-09-17T07:29:59;99979.72;;;15.84;100.00
3206;BME280;1615;53.602;11.418;2022-09-17T07:32:25;99989.38;;;15.66;100.00
3206;BME280;1615;53.602;11.418;2022-09-17T07:34:52;100010.56;;;15.74;100.00
3206;BME280;1615;53.602;11.418;2022-09-17T07:37:18;100012.28;;;15.90;100.00
3206;BME280;1615;53.602;11.418;2022-09-17T07:39:44;100014.91;;;15.99;100.00
3206;BME280;1615;53.602;11.418;2022-09-17T07:42:09;100018.16;;;16.01;100.00
3206;BME280;1615;53.602;11.418;2022-09-17T07:44:35;100014.91;;;15.99;100.00
3206;BME280;1615;53.602;11.418;2022-09-17T07:47:00;100019.50;;;16.19;100.00
3206;BME280;1615;53.602;11.418;2022-09-17T07:49:26;100022.03;;;16.24;100.00
3206;BME280;1615;53.602;11.418;2022-09-17T07:51:51;100014.06;;;16.22;100.00
3206;BME280;1615;53.602;11.418;2022-09-17T07:54:16;100018.81;;;16.22;100.00
3206;BME280;1615;53.602;11.418;2022-09-17T07:56:42;100018.09;;;16.25;100.00
3206;BME280;1615;53.602;11.418;2022-09-17T07:59:08;100016.81;;;16.34;100.00
3206;BME280;1615;53.602;11.418;2022-09-17T08:01:34;100014.53;;;16.36;100.00
3206;BME280;1615;53.602;11.418;2022-09-17T08:04:00;100018.44;;;16.35;100.00
3206;BME280;1615;53.602;11.418;2022-09-17T08:06:26;100019.50;;;16.43;100.00
3206;BME280;1615;53.602;11.418;2022-09-17T08:08:56;100013.72;;;16.48;100.00
3206;BME280;1615;53.602;11.418;2022-09-17T08:11:24;100012.16;;;16.62;100.00
3206;BME280;1615;53.602;11.418;2022-09-17T08:13:50;100011.09;;;16.67;100.00
3206;BME280;1615;53.602;11.418;2022-09-17T08:16:17;100012.22;;;16.78;100.00
3206;BME280;1615;53.602;11.418;2022-09-17T08:18:43;100020.69;;;16.85;100.00
3206;BME280;1615;53.602;11.418;2022-09-17T08:21:11;99989.63;;;16.76;100.00
3206;BME280;1615;53.602;11.418;2022-09-17T08:23:39;100005.00;;;16.89;100.00
3206;BME280;1615;53.602;11.418;2022-09-17T08:26:05;100007.63;;;16.97;100.00
3206;BME280;1615;53.602;11.418;2022-09-17T08:28:33;100013.53;;;16.96;100.00
3206;BME280;1615;53.602;11.418;2022-09-17T08:31:07;100004.94;;;17.01;100.00
3206;BME280;1615;53.602;11.418;2022-09-17T08:33:35;100011.88;;;16.95;100.00
3206;BME280;1615;53.602;11.418;2022-09-17T08:36:00;100008.88;;;17.00;100.00
3206;BME280;1615;53.602;11.418;2022-09-17T08:38:27;99995.50;;;17.17;100.00
3206;BME280;1615;53.602;11.418;2022-09-17T08:43:45;99996.09;;;17.38;100.00
3206;BME280;1615;53.602;11.418;2022-09-17T08:46:13;100012.38;;;17.40;100.00
3206;BME280;1615;53.602;11.418;2022-09-17T08:48:44;100007.72;;;17.44;100.00
3206;BME280;1615;53.602;11.418;2022-09-17T08:54:17;100024.38;;;17.32;100.00
3206;BME280;1615;53.602;11.418;2022-09-17T08:56:51;100003.06;;;17.05;100.00
3206;BME280;1615;53.602;11.418;2022-09-17T08:59:29;100024.72;;;17.15;100.00
3206;BME280;1615;53.602;11.418;2022-09-17T09:02:18;100026.97;;;17.25;100.00
3206;BME280;1615;53.602;11.418;2022-09-17T09:05:03;99981.19;;;17.00;100.00
3206;BME280;1615;53.602;11.418;2022-09-17T09:07:39;99734.25;;;15.34;100.00
3206;BME280;1615;53.602;11.418;2022-09-17T09:10:23;100011.94;;;17.10;100.00
3206;BME280;1615;53.602;11.418;2022-09-17T09:12:50;100019.44;;;17.10;100.00
3206;BME280;1615;53.602;11.418;2022-09-17T09:15:50;100015.72;;;17.18;100.00
3206;BME280;1615;53.602;11.418;2022-09-17T09:18:16;99999.34;;;17.13;100.00
3206;BME280;1615;53.602;11.418;2022-09-17T09:20:51;99975.38;;;17.05;100.00
3206;BME280;1615;53.602;11.418;2022-09-17T09:26:10;100018.91;;;17.20;100.00
3206;BME280;1615;53.602;11.418;2022-09-17T09:29:09;100018.84;;;17.32;100.00
3206;BME280;1615;53.602;11.418;2022-09-17T09:31:49;100014.91;;;17.33;100.00
3206;BME280;1615;53.602;11.418;2022-09-17T09:34:18;100021.94;;;17.15;100.00
3206;BME280;1615;53.602;11.418;2022-09-17T09:36:44;99949.38;;;16.94;100.00
3206;BME280;1615;53.602;11.418;2022-09-17T09:39:19;100008.94;;;17.46;100.00
3206;BME280;1615;53.602;11.418;2022-09-17T09:42:04;100012.97;;;17.80;100.00
3206;BME280;1615;53.602;11.418;2022-09-17T09:44:33;100020.47;;;17.95;100.00
3206;BME280;1615;53.602;11.418;2022-09-17T09:49:57;100014.88;;;18.26;100.00
3206;BME280;1615;53.602;11.418;2022-09-17T09:53:03;100000.44;;;18.36;100.00
3206;BME280;1615;53.602;11.418;2022-09-17T09:55:47;100001.63;;;18.35;100.00
3206;BME280;1615;53.602;11.418;2022-09-17T10:00:48;100000.88;;;18.38;100.00
3206;BME280;1615;53.602;11.418;2022-09-17T10:03:26;100011.34;;;18.82;100.00
3206;BME280;1615;53.602;11.418;2022-09-17T10:05:53;100013.59;;;18.77;100.00
3206;BME280;1615;53.602;11.418;2022-09-17T10:08:18;99966.50;;;18.27;100.00
3206;BME280;1615;53.602;11.418;2022-09-17T10:13:41;100008.03;;;18.39;100.00
3206;BME280;1615;53.602;11.418;2022-09-17T10:16:21;99997.09;;;18.30;100.00
3206;BME280;1615;53.602;11.418;2022-09-17T10:18:50;100012.00;;;17.88;100.00
3206;BME280;1615;53.602;11.418;2022-09-17T10:21:37;100017.06;;;17.86;100.00
3206;BME280;1615;53.602;11.418;2022-09-17T10:24:13;100011.91;;;17.69;100.00
3206;BME280;1615;53.602;11.418;2022-09-17T10:26:43;100010.81;;;17.89;100.00
3206;BME280;1615;53.602;11.418;2022-09-17T10:29:14;99916.88;;;17.53;100.00
3206;BME280;1615;53.602;11.418;2022-09-17T10:31:49;100008.72;;;18.32;100.00
3206;BME280;1615;53.602;11.418;2022-09-17T10:34:21;100007.03;;;18.47;100.00
3206;BME280;1615;53.602;11.418;2022-09-17T10:36:47;100009.47;;;18.48;100.00
3206;BME280;1615;53.602;11.418;2022-09-17T10:39:35;100006.06;;;18.39;100.00
3206;BME280;1615;53.602;11.418;2022-09-17T10:42:13;100027.34;;;18.51;100.00
3206;BME280;1615;53.602;11.418;2022-09-17T10:47:24;99986.13;;;18.53;100.00
3206;BME280;1615;53.602;11.418;2022-09-17T10:49:55;100001.47;;;18.66;100.00
3206;BME280;1615;53.602;11.418;2022-09-17T10:52:25;100008.78;;;18.36;100.00
3206;BME280;1615;53.602;11.418;2022-09-17T10:56:16;100028.34;;;17.93;100.00
3206;BME280;1615;53.602;11.418;2022-09-17T10:58:16;100027.19;;;17.78;100.00
3206;BME280;1615;53.602;11.418;2022-09-17T11:04:12;100025.34;;;17.67;100.00
3206;BME280;1615;53.602;11.418;2022-09-17T11:06:55;100025.78;;;17.53;100.00
3206;BME280;1615;53.602;11.418;2022-09-17T11:09:58;100021.56;;;17.75;100.00
3206;BME280;1615;53.602;11.418;2022-09-17T11:12:29;99827.34;;;16.40;100.00
3206;BME280;1615;53.602;11.418;2022-09-17T11:15:29;100024.34;;;17.90;100.00
3206;BME280;1615;53.602;11.418;2022-09-17T11:18:31;99886.59;;;16.98;100.00
3206;BME280;1615;53.602;11.418;2022-09-17T11:24:07;99927.72;;;16.68;100.00
3206;BME280;1615;53.602;11.418;2022-09-17T11:29:30;100029.66;;;17.37;100.00
3206;BME280;1615;53.602;11.418;2022-09-17T11:34:50;100027.16;;;16.89;100.00
3206;BME280;1615;53.602;11.418;2022-09-17T11:37:39;100021.47;;;16.70;100.00
3206;BME280;1615;53.602;11.418;2022-09-17T11:42:48;100032.56;;;16.58;100.00
3206;BME280;1615;53.602;11.418;2022-09-17T11:45:21;99876.56;;;15.68;100.00
3206;BME280;1615;53.602;11.418;2022-09-17T11:48:04;100030.47;;;16.67;100.00
3206;BME280;1615;53.602;11.418;2022-09-17T11:50:44;100031.59;;;16.78;100.00
3206;BME280;1615;53.602;11.418;2022-09-17T11:53:18;100028.50;;;16.95;100.00
3206;BME280;1615;53.602;11.418;2022-09-17T11:55:54;100004.94;;;17.01;100.00
3206;BME280;1615;53.602;11.418;2022-09-17T11:58:31;100022.13;;;17.06;100.00
3206;BME280;1615;53.602;11.418;2022-09-17T12:01:06;100015.56;;;16.99;100.00
3206;BME280;1615;53.602;11.418;2022-09-17T12:03:38;99956.00;;;16.62;100.00
3206;BME280;1615;53.602;11.418;2022-09-17T12:06:08;99961.03;;;16.72;100.00
3206;BME280;1615;53.602;11.418;2022-09-17T12:08:52;100016.97;;;17.36;100.00
3206;BME280;1615;53.602;11.418;2022-09-17T12:11:40;100002.00;;;17.52;100.00
3206;BME280;1615;53.602;11.418;2022-09-17T12:14:37;100005.56;;;17.53;100.00
3206;BME280;1615;53.602;11.418;2022-09-17T12:17:08;99993.31;;;17.54;100.00
3206;BME280;1615;53.602;11.418;2022-09-17T12:19:48;99991.97;;;17.79;100.00
3206;BME280;1615;53.602;11.418;2022-09-17T12:22:20;99992.56;;;17.88;100.00
3206;BME280;1615;53.602;11.418;2022-09-17T12:24:49;99995.06;;;17.93;100.00
3206;BME280;1615;53.602;11.418;2022-09-17T12:27:29;99983.59;;;17.60;100.00
3206;BME280;1615;53.602;11.418;2022-09-17T12:30:07;99990.28;;;17.74;100.00
3206;BME280;1615;53.602;11.418;2022-09-17T12:33:12;99987.75;;;17.54;100.00
3206;BME280;1615;53.602;11.418;2022-09-17T12:35:43;99982.22;;;17.54;100.00
3206;BME280;1615;53.602;11.418;2022-09-17T12:44:04;99945.81;;;17.24;100.00
3206;BME280;1615;53.602;11.418;2022-09-17T12:46:55;99956.84;;;17.52;100.00
3206;BME280;1615;53.602;11.418;2022-09-17T12:49:52;99966.22;;;17.63;100.00
3206;BME280;1615;53.602;11.418;2022-09-17T13:00:13;99976.72;;;18.04;100.00
3206;BME280;1615;53.602;11.418;2022-09-17T13:03:17;99976.25;;;18.02;100.00
3206;BME280;1615;53.602;11.418;2022-09-17T13:19:46;99964.66;;;18.50;100.00
3206;BME280;1615;53.602;11.418;2022-09-17T13:22:18;99978.78;;;18.26;100.00
3206;BME280;1615;53.602;11.418;2022-09-17T13:24:45;99975.47;;;18.20;100.00
3206;BME280;1615;53.602;11.418;2022-09-17T13:27:23;99979.97;;;18.25;100.00
3206;BME280;1615;53.602;11.418;2022-09-17T13:37:38;99977.00;;;17.99;100.00
3206;BME280;1615;53.602;11.418;2022-09-17T13:40:04;99886.50;;;17.41;100.00
3206;BME280;1615;53.602;11.418;2022-09-17T13:42:46;99975.19;;;17.91;100.00
3206;BME280;1615;53.602;11.418;2022-09-17T13:45:20;99974.81;;;17.73;100.00
3206;BME280;1615;53.602;11.418;2022-09-17T13:48:02;99968.44;;;17.73;100.00
3206;BME280;1615;53.602;11.418;2022-09-17T13:50:33;99981.59;;;17.76;100.00
3206;BME280;1615;53.602;11.418;2022-09-17T13:55:40;99980.81;;;17.60;100.00
3206;BME280;1615;53.602;11.418;2022-09-17T13:58:21;99972.47;;;17.75;100.00
3206;BME280;1615;53.602;11.418;2022-09-17T14:00:55;99980.50;;;17.80;100.00
3206;BME280;1615;53.602;11.418;2022-09-17T14:35:47;99965.41;;;17.78;100.00
3206;BME280;1615;53.602;11.418;2022-09-17T14:38:26;99927.06;;;17.33;100.00
3206;BME280;1615;53.602;11.418;2022-09-17T14:41:02;99968.00;;;17.55;100.00
3206;BME280;1615;53.602;11.418;2022-09-17T14:46:02;99967.44;;;17.34;100.00
3206;BME280;1615;53.602;11.418;2022-09-17T14:48:34;99991.09;;;17.44;100.00
3206;BME280;1615;53.602;11.418;2022-09-17T14:53:42;99972.28;;;17.37;100.00
3206;BME280;1615;53.602;11.418;2022-09-17T14:56:13;99970.13;;;17.31;100.00
3206;BME280;1615;53.602;11.418;2022-09-17T14:58:42;99981.22;;;17.15;100.00
3206;BME280;1615;53.602;11.418;2022-09-17T15:01:24;99981.50;;;16.83;100.00
3206;BME280;1615;53.602;11.418;2022-09-17T15:06:36;99867.06;;;15.81;100.00
3206;BME280;1615;53.602;11.418;2022-09-17T15:09:02;99983.75;;;16.38;100.00
3206;BME280;1615;53.602;11.418;2022-09-17T15:11:29;99987.25;;;16.23;100.00
3206;BME280;1615;53.602;11.418;2022-09-17T15:13:56;99980.09;;;16.10;100.00
3206;BME280;1615;53.602;11.418;2022-09-17T15:16:25;99988.56;;;15.89;100.00
3206;BME280;1615;53.602;11.418;2022-09-17T15:18:53;99888.06;;;15.10;100.00
3206;BME280;1615;53.602;11.418;2022-09-17T15:21:39;99998.47;;;15.54;100.00
3206;BME280;1615;53.602;11.418;2022-09-17T15:26:58;99971.66;;;15.43;100.00
3206;BME280;1615;53.602;11.418;2022-09-17T15:29:28;99998.47;;;15.54;100.00
3206;BME280;1615;53.602;11.418;2022-09-17T15:31:55;100010.56;;;15.50;100.00
3206;BME280;1615;53.602;11.418;2022-09-17T15:34:21;100002.75;;;15.52;100.00
3206;BME280;1615;53.602;11.418;2022-09-17T15:37:14;100000.66;;;15.49;100.00
3206;BME280;1615;53.602;11.418;2022-09-17T15:39:41;99992.38;;;15.37;100.00
3206;BME280;1615;53.602;11.418;2022-09-17T15:42:17;99990.88;;;15.39;100.00
3206;BME280;1615;53.602;11.418;2022-09-17T15:44:43;100000.44;;;15.42;100.00